Terminal Aerodrome Forecast
Issued by NWS Duluth, MN

Home | Current Version | Previous Version | Text Only | Print | Product List | Glossary On
Versions: 1 2 3 4 5 6 7 8 9 10 11 12 13 14 15 16 17 18 19 20 21 22 23 24
000
FTUS43 KDLH 050625 AAA
TAFINL
TAF AMD
KINL 050625Z 0506/0606 17005KT P6SM -SHRA BKN050 OVC070
      WS015/21040KT
     FM051200 18005KT P6SM VCSH SCT050 BKN250
     FM051500 19006KT P6SM BKN050 PROB30 0515/0519 5SM -TSRA
      BKN040CB
     FM051900 21007KT P6SM -SHRA BKN040
     FM060200 22004KT 4SM RA BR OVC025=

USA.gov is the U.S. government's official web portal to all federal, state and local government web resources and services.